sensor_id;sensor_type;location;lat;lon;timestamp;P1;durP1;ratioP1;P2;durP2;ratioP2
23252;SDS011;11795;47.054;15.408;2023-01-31T00:00:00;0.2;;;0.2;;
23252;SDS011;11795;47.054;15.408;2023-01-31T00:02:00;0.2;;;0.2;;
23252;SDS011;11795;47.054;15.408;2023-01-31T00:04:00;0.7;;;0.1;;
23252;SDS011;11795;47.054;15.408;2023-01-31T00:06:08;0.7;;;0.1;;
23252;SDS011;11795;47.054;15.408;2023-01-31T00:08:00;0.7;;;0.1;;
23252;SDS011;11795;47.054;15.408;2023-01-31T00:10:00;0.4;;;0.2;;
23252;SDS011;11795;47.054;15.408;2023-01-31T00:12:00;0.4;;;0.2;;
23252;SDS011;11795;47.054;15.408;2023-01-31T00:14:01;0.3;;;0.1;;
23252;SDS011;11795;47.054;15.408;2023-01-31T00:16:00;0.3;;;0.1;;
23252;SDS011;11795;47.054;15.408;2023-01-31T00:18:00;0.3;;;0.1;;
23252;SDS011;11795;47.054;15.408;2023-01-31T00:20:00;0.9;;;0.3;;
23252;SDS011;11795;47.054;15.408;2023-01-31T00:22:00;0.9;;;0.3;;
23252;SDS011;11795;47.054;15.408;2023-01-31T00:24:00;0.9;;;0.2;;
23252;SDS011;11795;47.054;15.408;2023-01-31T00:28:00;0.9;;;0.2;;
23252;SDS011;11795;47.054;15.408;2023-01-31T00:30:00;0.9;;;0.2;;
23252;SDS011;11795;47.054;15.408;2023-01-31T00:32:00;0.9;;;0.2;;
23252;SDS011;11795;47.054;15.408;2023-01-31T00:34:00;0.6;;;0.1;;
23252;SDS011;11795;47.054;15.408;2023-01-31T00:36:01;0.6;;;0.1;;
23252;SDS011;11795;47.054;15.408;2023-01-31T00:38:00;0.6;;;0.1;;
23252;SDS011;11795;47.054;15.408;2023-01-31T00:40:00;0.4;;;0.2;;
23252;SDS011;11795;47.054;15.408;2023-01-31T00:42:00;0.4;;;0.2;;
23252;SDS011;11795;47.054;15.408;2023-01-31T00:44:00;0.4;;;0.2;;
23252;SDS011;11795;47.054;15.408;2023-01-31T00:46:00;0.8;;;0.3;;
23252;SDS011;11795;47.054;15.408;2023-01-31T00:48:00;0.8;;;0.3;;
23252;SDS011;11795;47.054;15.408;2023-01-31T00:50:00;0.5;;;0.2;;
23252;SDS011;11795;47.054;15.408;2023-01-31T00:52:00;0.5;;;0.2;;
23252;SDS011;11795;47.054;15.408;2023-01-31T00:54:00;0.5;;;0.2;;
23252;SDS011;11795;47.054;15.408;2023-01-31T00:56:01;0.5;;;0.2;;
23252;SDS011;11795;47.054;15.408;2023-01-31T00:58:00;0.5;;;0.2;;
23252;SDS011;11795;47.054;15.408;2023-01-31T01:00:00;0.5;;;0.2;;
23252;SDS011;11795;47.054;15.408;2023-01-31T01:02:00;0.5;;;0.2;;
23252;SDS011;11795;47.054;15.408;2023-01-31T01:04:00;0.5;;;0.2;;
23252;SDS011;11795;47.054;15.408;2023-01-31T01:06:00;1.1;;;0.2;;
23252;SDS011;11795;47.054;15.408;2023-01-31T01:08:00;1.1;;;0.2;;
23252;SDS011;11795;47.054;15.408;2023-01-31T01:10:00;0.6;;;0.2;;
23252;SDS011;11795;47.054;15.408;2023-01-31T01:12:00;0.6;;;0.2;;
23252;SDS011;11795;47.054;15.408;2023-01-31T01:14:00;0.6;;;0.2;;
23252;SDS011;11795;47.054;15.408;2023-01-31T01:16:03;1.5;;;0.1;;
23252;SDS011;11795;47.054;15.408;2023-01-31T01:18:00;1.5;;;0.1;;
23252;SDS011;11795;47.054;15.408;2023-01-31T01:20:03;1.5;;;0.2;;
23252;SDS011;11795;47.054;15.408;2023-01-31T01:22:00;1.5;;;0.2;;
23252;SDS011;11795;47.054;15.408;2023-01-31T01:24:00;1.5;;;0.2;;
23252;SDS011;11795;47.054;15.408;2023-01-31T01:26:00;0.4;;;0.0;;
23252;SDS011;11795;47.054;15.408;2023-01-31T01:28:00;0.4;;;0.0;;
23252;SDS011;11795;47.054;15.408;2023-01-31T01:30:01;0.8;;;0.2;;
23252;SDS011;11795;47.054;15.408;2023-01-31T01:32:00;0.8;;;0.2;;
23252;SDS011;11795;47.054;15.408;2023-01-31T01:34:01;0.8;;;0.2;;
23252;SDS011;11795;47.054;15.408;2023-01-31T01:36:00;0.3;;;0.1;;
23252;SDS011;11795;47.054;15.408;2023-01-31T01:38:00;0.3;;;0.1;;
23252;SDS011;11795;47.054;15.408;2023-01-31T01:40:00;0.2;;;0.1;;
23252;SDS011;11795;47.054;15.408;2023-01-31T01:42:00;0.2;;;0.1;;
23252;SDS011;11795;47.054;15.408;2023-01-31T01:44:01;0.2;;;0.1;;
23252;SDS011;11795;47.054;15.408;2023-01-31T01:46:00;0.6;;;0.2;;
23252;SDS011;11795;47.054;15.408;2023-01-31T01:48:02;0.6;;;0.2;;
23252;SDS011;11795;47.054;15.408;2023-01-31T01:50:01;0.3;;;0.2;;
23252;SDS011;11795;47.054;15.408;2023-01-31T01:52:01;0.3;;;0.2;;
23252;SDS011;11795;47.054;15.408;2023-01-31T01:54:02;0.3;;;0.2;;
23252;SDS011;11795;47.054;15.408;2023-01-31T01:56:01;0.4;;;0.1;;
23252;SDS011;11795;47.054;15.408;2023-01-31T01:58:01;0.4;;;0.1;;
23252;SDS011;11795;47.054;15.408;2023-01-31T02:00:02;0.2;;;0.1;;
23252;SDS011;11795;47.054;15.408;2023-01-31T02:02:00;0.2;;;0.1;;
23252;SDS011;11795;47.054;15.408;2023-01-31T02:04:00;0.2;;;0.1;;
23252;SDS011;11795;47.054;15.408;2023-01-31T02:06:01;1.2;;;0.1;;
23252;SDS011;11795;47.054;15.408;2023-01-31T02:08:00;1.2;;;0.1;;
23252;SDS011;11795;47.054;15.408;2023-01-31T02:10:02;0.4;;;0.1;;
23252;SDS011;11795;47.054;15.408;2023-01-31T02:12:00;0.4;;;0.1;;
23252;SDS011;11795;47.054;15.408;2023-01-31T02:14:01;0.4;;;0.1;;
23252;SDS011;11795;47.054;15.408;2023-01-31T02:16:00;0.1;;;0.0;;
23252;SDS011;11795;47.054;15.408;2023-01-31T02:18:00;0.1;;;0.0;;
23252;SDS011;11795;47.054;15.408;2023-01-31T02:20:02;0.6;;;0.1;;
23252;SDS011;11795;47.054;15.408;2023-01-31T02:22:07;0.6;;;0.1;;
23252;SDS011;11795;47.054;15.408;2023-01-31T02:26:08;0.4;;;0.2;;
23252;SDS011;11795;47.054;15.408;2023-01-31T02:28:05;0.4;;;0.2;;
23252;SDS011;11795;47.054;15.408;2023-01-31T02:34:01;0.6;;;0.2;;
23252;SDS011;11795;47.054;15.408;2023-01-31T02:36:03;1.1;;;0.3;;
23252;SDS011;11795;47.054;15.408;2023-01-31T02:38:07;1.1;;;0.3;;
23252;SDS011;11795;47.054;15.408;2023-01-31T02:40:01;0.4;;;0.2;;
23252;SDS011;11795;47.054;15.408;2023-01-31T02:42:02;0.4;;;0.2;;
23252;SDS011;11795;47.054;15.408;2023-01-31T02:44:12;0.6;;;0.2;;
23252;SDS011;11795;47.054;15.408;2023-01-31T02:46:00;0.6;;;0.2;;
23252;SDS011;11795;47.054;15.408;2023-01-31T02:48:03;0.6;;;0.2;;
23252;SDS011;11795;47.054;15.408;2023-01-31T02:50:01;0.6;;;0.1;;
23252;SDS011;11795;47.054;15.408;2023-01-31T02:52:13;0.6;;;0.1;;
23252;SDS011;11795;47.054;15.408;2023-01-31T02:54:01;0.6;;;0.1;;
23252;SDS011;11795;47.054;15.408;2023-01-31T02:56:10;0.1;;;0.0;;
23252;SDS011;11795;47.054;15.408;2023-01-31T02:58:01;0.1;;;0.0;;
23252;SDS011;11795;47.054;15.408;2023-01-31T03:00:00;0.4;;;0.2;;
23252;SDS011;11795;47.054;15.408;2023-01-31T03:02:01;0.4;;;0.2;;
23252;SDS011;11795;47.054;15.408;2023-01-31T03:04:02;0.4;;;0.2;;
23252;SDS011;11795;47.054;15.408;2023-01-31T03:08:00;0.6;;;0.2;;
23252;SDS011;11795;47.054;15.408;2023-01-31T03:10:02;0.3;;;0.1;;
23252;SDS011;11795;47.054;15.408;2023-01-31T03:12:01;0.3;;;0.1;;
23252;SDS011;11795;47.054;15.408;2023-01-31T03:14:01;0.3;;;0.1;;
23252;SDS011;11795;47.054;15.408;2023-01-31T03:16:13;0.4;;;0.2;;
23252;SDS011;11795;47.054;15.408;2023-01-31T03:18:01;0.4;;;0.2;;
23252;SDS011;11795;47.054;15.408;2023-01-31T03:20:02;0.7;;;0.2;;
23252;SDS011;11795;47.054;15.408;2023-01-31T03:22:01;0.7;;;0.2;;
23252;SDS011;11795;47.054;15.408;2023-01-31T03:24:00;0.7;;;0.2;;
23252;SDS011;11795;47.054;15.408;2023-01-31T03:26:00;0.8;;;0.2;;
23252;SDS011;11795;47.054;15.408;2023-01-31T03:28:01;0.8;;;0.2;;
23252;SDS011;11795;47.054;15.408;2023-01-31T03:30:02;0.4;;;0.1;;
23252;SDS011;11795;47.054;15.408;2023-01-31T03:32:02;0.4;;;0.1;;
23252;SDS011;11795;47.054;15.408;2023-01-31T03:34:01;0.4;;;0.1;;
23252;SDS011;11795;47.054;15.408;2023-01-31T03:36:01;0.7;;;0.1;;
23252;SDS011;11795;47.054;15.408;2023-01-31T03:38:02;0.7;;;0.1;;
23252;SDS011;11795;47.054;15.408;2023-01-31T03:40:02;0.6;;;0.2;;
23252;SDS011;11795;47.054;15.408;2023-01-31T03:42:02;0.6;;;0.2;;
23252;SDS011;11795;47.054;15.408;2023-01-31T03:44:00;0.6;;;0.2;;
23252;SDS011;11795;47.054;15.408;2023-01-31T03:46:00;0.9;;;0.3;;
23252;SDS011;11795;47.054;15.408;2023-01-31T03:48:02;0.9;;;0.3;;
23252;SDS011;11795;47.054;15.408;2023-01-31T03:50:01;0.5;;;0.1;;
23252;SDS011;11795;47.054;15.408;2023-01-31T03:52:02;0.5;;;0.1;;
23252;SDS011;11795;47.054;15.408;2023-01-31T03:54:00;0.5;;;0.1;;
23252;SDS011;11795;47.054;15.408;2023-01-31T03:56:01;0.3;;;0.1;;
23252;SDS011;11795;47.054;15.408;2023-01-31T03:58:00;0.3;;;0.1;;
23252;SDS011;11795;47.054;15.408;2023-01-31T04:00:01;0.5;;;0.2;;
23252;SDS011;11795;47.054;15.408;2023-01-31T04:02:00;0.5;;;0.2;;
23252;SDS011;11795;47.054;15.408;2023-01-31T04:04:01;0.5;;;0.2;;
23252;SDS011;11795;47.054;15.408;2023-01-31T04:06:00;0.6;;;0.1;;
23252;SDS011;11795;47.054;15.408;2023-01-31T04:08:00;0.6;;;0.1;;
23252;SDS011;11795;47.054;15.408;2023-01-31T04:10:00;1.4;;;0.2;;
23252;SDS011;11795;47.054;15.408;2023-01-31T04:12:02;1.4;;;0.2;;
23252;SDS011;11795;47.054;15.408;2023-01-31T04:14:00;1.4;;;0.2;;
23252;SDS011;11795;47.054;15.408;2023-01-31T04:16:00;0.7;;;0.2;;
23252;SDS011;11795;47.054;15.408;2023-01-31T04:18:00;0.7;;;0.2;;
23252;SDS011;11795;47.054;15.408;2023-01-31T04:20:00;0.4;;;0.2;;
23252;SDS011;11795;47.054;15.408;2023-01-31T04:22:00;0.4;;;0.2;;
23252;SDS011;11795;47.054;15.408;2023-01-31T04:24:00;0.4;;;0.2;;
23252;SDS011;11795;47.054;15.408;2023-01-31T04:26:00;0.6;;;0.2;;
23252;SDS011;11795;47.054;15.408;2023-01-31T04:28:00;0.6;;;0.2;;
23252;SDS011;11795;47.054;15.408;2023-01-31T04:30:00;0.5;;;0.1;;
23252;SDS011;11795;47.054;15.408;2023-01-31T04:32:00;0.5;;;0.1;;
23252;SDS011;11795;47.054;15.408;2023-01-31T04:34:00;0.5;;;0.1;;
23252;SDS011;11795;47.054;15.408;2023-01-31T04:36:00;0.2;;;0.2;;
23252;SDS011;11795;47.054;15.408;2023-01-31T04:38:00;0.2;;;0.2;;
23252;SDS011;11795;47.054;15.408;2023-01-31T04:40:00;0.8;;;0.4;;
23252;SDS011;11795;47.054;15.408;2023-01-31T04:42:00;0.8;;;0.4;;
23252;SDS011;11795;47.054;15.408;2023-01-31T04:44:00;0.8;;;0.4;;
23252;SDS011;11795;47.054;15.408;2023-01-31T04:46:00;0.7;;;0.4;;
23252;SDS011;11795;47.054;15.408;2023-01-31T04:48:00;0.7;;;0.4;;
23252;SDS011;11795;47.054;15.408;2023-01-31T04:50:00;0.5;;;0.2;;
23252;SDS011;11795;47.054;15.408;2023-01-31T04:52:00;0.5;;;0.2;;
23252;SDS011;11795;47.054;15.408;2023-01-31T04:54:00;0.5;;;0.2;;
23252;SDS011;11795;47.054;15.408;2023-01-31T04:56:00;0.8;;;0.1;;
23252;SDS011;11795;47.054;15.408;2023-01-31T04:58:00;0.8;;;0.1;;
23252;SDS011;11795;47.054;15.408;2023-01-31T05:00:00;0.9;;;0.4;;
23252;SDS011;11795;47.054;15.408;2023-01-31T05:02:00;0.9;;;0.4;;
23252;SDS011;11795;47.054;15.408;2023-01-31T05:04:00;0.9;;;0.4;;
23252;SDS011;11795;47.054;15.408;2023-01-31T05:06:00;0.9;;;0.5;;
23252;SDS011;11795;47.054;15.408;2023-01-31T05:08:00;0.9;;;0.5;;
23252;SDS011;11795;47.054;15.408;2023-01-31T05:10:00;1.0;;;0.8;;
23252;SDS011;11795;47.054;15.408;2023-01-31T05:12:00;1.0;;;0.8;;
23252;SDS011;11795;47.054;15.408;2023-01-31T05:14:00;1.0;;;0.8;;
23252;SDS011;11795;47.054;15.408;2023-01-31T05:16:00;2.1;;;1.3;;
23252;SDS011;11795;47.054;15.408;2023-01-31T05:18:02;2.1;;;1.3;;
23252;SDS011;11795;47.054;15.408;2023-01-31T05:20:00;1.9;;;0.9;;
23252;SDS011;11795;47.054;15.408;2023-01-31T05:22:00;1.9;;;0.9;;
23252;SDS011;11795;47.054;15.408;2023-01-31T05:24:00;1.9;;;0.9;;
23252;SDS011;11795;47.054;15.408;2023-01-31T05:26:00;2.5;;;1.4;;
23252;SDS011;11795;47.054;15.408;2023-01-31T05:28:00;2.5;;;1.4;;
23252;SDS011;11795;47.054;15.408;2023-01-31T05:30:00;3.1;;;1.7;;
23252;SDS011;11795;47.054;15.408;2023-01-31T05:32:00;3.1;;;1.7;;
23252;SDS011;11795;47.054;15.408;2023-01-31T05:34:00;3.1;;;1.7;;
23252;SDS011;11795;47.054;15.408;2023-01-31T05:36:00;4.2;;;1.5;;
23252;SDS011;11795;47.054;15.408;2023-01-31T05:38:00;4.2;;;1.5;;
23252;SDS011;11795;47.054;15.408;2023-01-31T05:40:00;2.2;;;0.5;;
23252;SDS011;11795;47.054;15.408;2023-01-31T05:42:00;2.2;;;0.5;;
23252;SDS011;11795;47.054;15.408;2023-01-31T05:44:00;2.2;;;0.5;;
23252;SDS011;11795;47.054;15.408;2023-01-31T05:46:00;1.2;;;0.6;;
23252;SDS011;11795;47.054;15.408;2023-01-31T05:48:00;1.2;;;0.6;;
23252;SDS011;11795;47.054;15.408;2023-01-31T05:50:00;0.8;;;0.4;;
23252;SDS011;11795;47.054;15.408;2023-01-31T05:52:00;0.8;;;0.4;;
23252;SDS011;11795;47.054;15.408;2023-01-31T05:54:00;0.8;;;0.4;;
23252;SDS011;11795;47.054;15.408;2023-01-31T05:56:00;1.5;;;0.5;;
23252;SDS011;11795;47.054;15.408;2023-01-31T05:58:00;1.5;;;0.5;;
23252;SDS011;11795;47.054;15.408;2023-01-31T06:00:00;0.9;;;0.4;;
23252;SDS011;11795;47.054;15.408;2023-01-31T06:02:00;0.9;;;0.4;;
23252;SDS011;11795;47.054;15.408;2023-01-31T06:04:00;0.9;;;0.4;;
23252;SDS011;11795;47.054;15.408;2023-01-31T06:06:00;1.5;;;0.5;;
23252;SDS011;11795;47.054;15.408;2023-01-31T06:08:00;1.5;;;0.5;;
23252;SDS011;11795;47.054;15.408;2023-01-31T06:10:00;0.8;;;0.5;;
23252;SDS011;11795;47.054;15.408;2023-01-31T06:12:00;0.8;;;0.5;;
23252;SDS011;11795;47.054;15.408;2023-01-31T06:14:00;0.8;;;0.5;;
23252;SDS011;11795;47.054;15.408;2023-01-31T06:16:00;1.4;;;0.4;;
23252;SDS011;11795;47.054;15.408;2023-01-31T06:18:00;1.4;;;0.4;;
23252;SDS011;11795;47.054;15.408;2023-01-31T06:20:00;0.8;;;0.5;;
23252;SDS011;11795;47.054;15.408;2023-01-31T06:22:00;0.8;;;0.5;;
23252;SDS011;11795;47.054;15.408;2023-01-31T06:24:00;0.8;;;0.5;;
23252;SDS011;11795;47.054;15.408;2023-01-31T06:26:00;1.4;;;0.6;;
23252;SDS011;11795;47.054;15.408;2023-01-31T06:28:00;1.4;;;0.6;;
23252;SDS011;11795;47.054;15.408;2023-01-31T06:30:00;3.0;;;1.5;;
23252;SDS011;11795;47.054;15.408;2023-01-31T06:32:00;3.0;;;1.5;;
23252;SDS011;11795;47.054;15.408;2023-01-31T06:34:00;3.0;;;1.5;;
23252;SDS011;11795;47.054;15.408;2023-01-31T06:36:00;3.2;;;2.2;;
23252;SDS011;11795;47.054;15.408;2023-01-31T06:38:00;3.2;;;2.2;;
23252;SDS011;11795;47.054;15.408;2023-01-31T06:40:00;1.2;;;0.9;;
23252;SDS011;11795;47.054;15.408;2023-01-31T06:42:00;1.2;;;0.9;;
23252;SDS011;11795;47.054;15.408;2023-01-31T06:44:00;1.2;;;0.9;;
23252;SDS011;11795;47.054;15.408;2023-01-31T06:46:00;0.9;;;0.6;;
23252;SDS011;11795;47.054;15.408;2023-01-31T06:48:00;0.9;;;0.6;;
23252;SDS011;11795;47.054;15.408;2023-01-31T06:50:00;0.9;;;0.6;;
23252;SDS011;11795;47.054;15.408;2023-01-31T06:52:00;0.9;;;0.6;;
23252;SDS011;11795;47.054;15.408;2023-01-31T06:54:00;0.9;;;0.6;;
23252;SDS011;11795;47.054;15.408;2023-01-31T06:56:00;1.1;;;0.6;;
23252;SDS011;11795;47.054;15.408;2023-01-31T06:58:00;1.1;;;0.6;;
23252;SDS011;11795;47.054;15.408;2023-01-31T07:00:00;1.9;;;1.4;;
23252;SDS011;11795;47.054;15.408;2023-01-31T07:02:00;1.9;;;1.4;;
23252;SDS011;11795;47.054;15.408;2023-01-31T07:04:00;1.9;;;1.4;;
23252;SDS011;11795;47.054;15.408;2023-01-31T07:06:00;2.8;;;1.6;;
23252;SDS011;11795;47.054;15.408;2023-01-31T07:08:00;2.8;;;1.6;;
23252;SDS011;11795;47.054;15.408;2023-01-31T07:10:00;2.2;;;1.4;;
23252;SDS011;11795;47.054;15.408;2023-01-31T07:12:00;2.2;;;1.4;;
23252;SDS011;11795;47.054;15.408;2023-01-31T07:14:00;2.2;;;1.4;;
23252;SDS011;11795;47.054;15.408;2023-01-31T07:16:00;3.4;;;2.7;;
23252;SDS011;11795;47.054;15.408;2023-01-31T07:18:00;3.4;;;2.7;;
23252;SDS011;11795;47.054;15.408;2023-01-31T07:20:00;5.6;;;3.0;;
23252;SDS011;11795;47.054;15.408;2023-01-31T07:22:00;5.6;;;3.0;;
23252;SDS011;11795;47.054;15.408;2023-01-31T07:24:00;5.6;;;3.0;;
23252;SDS011;11795;47.054;15.408;2023-01-31T07:26:02;8.9;;;3.9;;
23252;SDS011;11795;47.054;15.408;2023-01-31T07:28:00;8.9;;;3.9;;
23252;SDS011;11795;47.054;15.408;2023-01-31T07:30:00;12.9;;;7.2;;
23252;SDS011;11795;47.054;15.408;2023-01-31T07:32:00;12.9;;;7.2;;
23252;SDS011;11795;47.054;15.408;2023-01-31T07:34:00;12.9;;;7.2;;
23252;SDS011;11795;47.054;15.408;2023-01-31T07:36:00;11.7;;;8.0;;
23252;SDS011;11795;47.054;15.408;2023-01-31T07:38:00;11.7;;;8.0;;
23252;SDS011;11795;47.054;15.408;2023-01-31T07:40:00;10.9;;;6.3;;
23252;SDS011;11795;47.054;15.408;2023-01-31T07:42:00;10.9;;;6.3;;
23252;SDS011;11795;47.054;15.408;2023-01-31T07:44:00;10.9;;;6.3;;
23252;SDS011;11795;47.054;15.408;2023-01-31T07:46:00;6.7;;;3.5;;
23252;SDS011;11795;47.054;15.408;2023-01-31T07:48:00;6.7;;;3.5;;
23252;SDS011;11795;47.054;15.408;2023-01-31T07:50:00;5.9;;;2.9;;
23252;SDS011;11795;47.054;15.408;2023-01-31T07:52:00;5.9;;;2.9;;
23252;SDS011;11795;47.054;15.408;2023-01-31T07:54:00;5.9;;;2.9;;
23252;SDS011;11795;47.054;15.408;2023-01-31T07:56:08;4.9;;;2.7;;
23252;SDS011;11795;47.054;15.408;2023-01-31T07:58:00;4.9;;;2.7;;
23252;SDS011;11795;47.054;15.408;2023-01-31T08:00:00;5.7;;;3.5;;
23252;SDS011;11795;47.054;15.408;2023-01-31T08:02:10;5.7;;;3.5;;
23252;SDS011;11795;47.054;15.408;2023-01-31T08:04:00;5.7;;;3.5;;
23252;SDS011;11795;47.054;15.408;2023-01-31T08:06:01;5.0;;;3.1;;
23252;SDS011;11795;47.054;15.408;2023-01-31T08:08:09;5.0;;;3.1;;
23252;SDS011;11795;47.054;15.408;2023-01-31T08:10:00;5.3;;;3.0;;
23252;SDS011;11795;47.054;15.408;2023-01-31T08:12:00;5.3;;;3.0;;
23252;SDS011;11795;47.054;15.408;2023-01-31T08:14:00;5.3;;;3.0;;
23252;SDS011;11795;47.054;15.408;2023-01-31T08:16:00;4.3;;;2.8;;
23252;SDS011;11795;47.054;15.408;2023-01-31T08:18:00;4.3;;;2.8;;
23252;SDS011;11795;47.054;15.408;2023-01-31T08:20:00;3.8;;;2.6;;
23252;SDS011;11795;47.054;15.408;2023-01-31T08:22:00;3.8;;;2.6;;
23252;SDS011;11795;47.054;15.408;2023-01-31T08:24:00;3.8;;;2.6;;
23252;SDS011;11795;47.054;15.408;2023-01-31T08:26:01;4.0;;;2.3;;
23252;SDS011;11795;47.054;15.408;2023-01-31T08:28:00;4.0;;;2.3;;
23252;SDS011;11795;47.054;15.408;2023-01-31T08:30:00;3.3;;;1.9;;
23252;SDS011;11795;47.054;15.408;2023-01-31T08:32:02;3.3;;;1.9;;
23252;SDS011;11795;47.054;15.408;2023-01-31T08:34:00;3.3;;;1.9;;
23252;SDS011;11795;47.054;15.408;2023-01-31T08:36:07;4.2;;;1.4;;
23252;SDS011;11795;47.054;15.408;2023-01-31T08:38:00;4.2;;;1.4;;
23252;SDS011;11795;47.054;15.408;2023-01-31T08:40:00;4.5;;;1.4;;
23252;SDS011;11795;47.054;15.408;2023-01-31T08:42:00;4.5;;;1.4;;
23252;SDS011;11795;47.054;15.408;2023-01-31T08:44:02;4.5;;;1.4;;
23252;SDS011;11795;47.054;15.408;2023-01-31T08:46:00;2.3;;;1.1;;
23252;SDS011;11795;47.054;15.408;2023-01-31T08:48:01;2.3;;;1.1;;
23252;SDS011;11795;47.054;15.408;2023-01-31T08:50:00;3.5;;;1.2;;
23252;SDS011;11795;47.054;15.408;2023-01-31T08:52:00;3.5;;;1.2;;
23252;SDS011;11795;47.054;15.408;2023-01-31T08:54:00;3.5;;;1.2;;
23252;SDS011;11795;47.054;15.408;2023-01-31T08:56:00;3.4;;;1.4;;
23252;SDS011;11795;47.054;15.408;2023-01-31T08:58:01;3.4;;;1.4;;
23252;SDS011;11795;47.054;15.408;2023-01-31T09:00:00;3.3;;;1.3;;
23252;SDS011;11795;47.054;15.408;2023-01-31T09:02:00;3.3;;;1.3;;
23252;SDS011;11795;47.054;15.408;2023-01-31T09:04:00;3.3;;;1.3;;
23252;SDS011;11795;47.054;15.408;2023-01-31T09:06:00;8.3;;;2.1;;
23252;SDS011;11795;47.054;15.408;2023-01-31T09:08:00;8.3;;;2.1;;
23252;SDS011;11795;47.054;15.408;2023-01-31T09:10:00;3.9;;;1.3;;
23252;SDS011;11795;47.054;15.408;2023-01-31T09:12:00;3.9;;;1.3;;
23252;SDS011;11795;47.054;15.408;2023-01-31T09:14:00;3.9;;;1.3;;
23252;SDS011;11795;47.054;15.408;2023-01-31T09:16:00;4.9;;;1.3;;
23252;SDS011;11795;47.054;15.408;2023-01-31T09:18:00;4.9;;;1.3;;
23252;SDS011;11795;47.054;15.408;2023-01-31T09:20:06;5.3;;;1.3;;
23252;SDS011;11795;47.054;15.408;2023-01-31T09:22:00;5.3;;;1.3;;
23252;SDS011;11795;47.054;15.408;2023-01-31T09:24:01;5.3;;;1.3;;
23252;SDS011;11795;47.054;15.408;2023-01-31T09:26:00;1.7;;;0.9;;
23252;SDS011;11795;47.054;15.408;2023-01-31T09:28:01;1.7;;;0.9;;
23252;SDS011;11795;47.054;15.408;2023-01-31T09:30:00;2.4;;;1.1;;
23252;SDS011;11795;47.054;15.408;2023-01-31T09:32:00;2.4;;;1.1;;
23252;SDS011;11795;47.054;15.408;2023-01-31T09:34:00;2.4;;;1.1;;
23252;SDS011;11795;47.054;15.408;2023-01-31T09:36:00;2.6;;;0.9;;
23252;SDS011;11795;47.054;15.408;2023-01-31T09:38:00;2.6;;;0.9;;
23252;SDS011;11795;47.054;15.408;2023-01-31T09:40:00;2.1;;;0.7;;
23252;SDS011;11795;47.054;15.408;2023-01-31T09:42:00;2.1;;;0.7;;
23252;SDS011;11795;47.054;15.408;2023-01-31T09:44:02;2.1;;;0.7;;
23252;SDS011;11795;47.054;15.408;2023-01-31T09:46:01;1.5;;;0.6;;
23252;SDS011;11795;47.054;15.408;2023-01-31T09:48:00;1.5;;;0.6;;
23252;SDS011;11795;47.054;15.408;2023-01-31T09:50:02;2.2;;;0.6;;
23252;SDS011;11795;47.054;15.408;2023-01-31T09:52:01;2.2;;;0.6;;
23252;SDS011;11795;47.054;15.408;2023-01-31T09:54:00;2.2;;;0.6;;
23252;SDS011;11795;47.054;15.408;2023-01-31T09:56:04;1.1;;;0.4;;
23252;SDS011;11795;47.054;15.408;2023-01-31T09:58:01;1.1;;;0.4;;
23252;SDS011;11795;47.054;15.408;2023-01-31T10:00:02;1.3;;;0.5;;
23252;SDS011;11795;47.054;15.408;2023-01-31T10:02:08;1.3;;;0.5;;
23252;SDS011;11795;47.054;15.408;2023-01-31T10:04:07;1.3;;;0.5;;
23252;SDS011;11795;47.054;15.408;2023-01-31T10:06:02;2.2;;;0.5;;
23252;SDS011;11795;47.054;15.408;2023-01-31T10:08:02;2.2;;;0.5;;
23252;SDS011;11795;47.054;15.408;2023-01-31T10:10:02;1.5;;;0.5;;
23252;SDS011;11795;47.054;15.408;2023-01-31T10:12:02;1.5;;;0.5;;
23252;SDS011;11795;47.054;15.408;2023-01-31T10:14:02;1.5;;;0.5;;
23252;SDS011;11795;47.054;15.408;2023-01-31T10:16:01;0.6;;;0.3;;
23252;SDS011;11795;47.054;15.408;2023-01-31T10:18:00;0.6;;;0.3;;
23252;SDS011;11795;47.054;15.408;2023-01-31T10:20:02;2.1;;;0.4;;
23252;SDS011;11795;47.054;15.408;2023-01-31T10:22:01;2.1;;;0.4;;
23252;SDS011;11795;47.054;15.408;2023-01-31T10:24:01;2.1;;;0.4;;
23252;SDS011;11795;47.054;15.408;2023-01-31T10:26:00;0.8;;;0.3;;
23252;SDS011;11795;47.054;15.408;2023-01-31T10:28:01;0.8;;;0.3;;
23252;SDS011;11795;47.054;15.408;2023-01-31T10:30:00;1.3;;;0.5;;
23252;SDS011;11795;47.054;15.408;2023-01-31T10:32:01;1.3;;;0.5;;
23252;SDS011;11795;47.054;15.408;2023-01-31T10:34:02;1.3;;;0.5;;
23252;SDS011;11795;47.054;15.408;2023-01-31T10:36:01;1.5;;;0.4;;
23252;SDS011;11795;47.054;15.408;2023-01-31T10:38:00;1.5;;;0.4;;
23252;SDS011;11795;47.054;15.408;2023-01-31T10:40:02;1.0;;;0.3;;
23252;SDS011;11795;47.054;15.408;2023-01-31T10:44:01;1.0;;;0.3;;
23252;SDS011;11795;47.054;15.408;2023-01-31T10:46:00;0.8;;;0.4;;
23252;SDS011;11795;47.054;15.408;2023-01-31T10:48:06;0.8;;;0.4;;
23252;SDS011;11795;47.054;15.408;2023-01-31T10:50:00;1.0;;;0.3;;
23252;SDS011;11795;47.054;15.408;2023-01-31T10:52:06;1.0;;;0.3;;
23252;SDS011;11795;47.054;15.408;2023-01-31T10:54:04;1.0;;;0.3;;
23252;SDS011;11795;47.054;15.408;2023-01-31T10:56:02;1.5;;;0.3;;
23252;SDS011;11795;47.054;15.408;2023-01-31T10:58:00;1.5;;;0.3;;
23252;SDS011;11795;47.054;15.408;2023-01-31T11:00:00;1.9;;;0.5;;
23252;SDS011;11795;47.054;15.408;2023-01-31T11:02:01;1.9;;;0.5;;
23252;SDS011;11795;47.054;15.408;2023-01-31T11:04:19;1.9;;;0.5;;
23252;SDS011;11795;47.054;15.408;2023-01-31T11:06:00;1.4;;;0.4;;
23252;SDS011;11795;47.054;15.408;2023-01-31T11:08:00;1.4;;;0.4;;
23252;SDS011;11795;47.054;15.408;2023-01-31T11:10:00;1.0;;;0.5;;
23252;SDS011;11795;47.054;15.408;2023-01-31T11:12:01;1.0;;;0.5;;
23252;SDS011;11795;47.054;15.408;2023-01-31T11:14:00;1.0;;;0.5;;
23252;SDS011;11795;47.054;15.408;2023-01-31T11:16:00;1.5;;;0.5;;
23252;SDS011;11795;47.054;15.408;2023-01-31T11:18:00;1.5;;;0.5;;
23252;SDS011;11795;47.054;15.408;2023-01-31T11:20:00;1.6;;;0.5;;
23252;SDS011;11795;47.054;15.408;2023-01-31T11:22:00;1.6;;;0.5;;
23252;SDS011;11795;47.054;15.408;2023-01-31T11:24:01;1.6;;;0.5;;
23252;SDS011;11795;47.054;15.408;2023-01-31T11:26:00;0.7;;;0.3;;
23252;SDS011;11795;47.054;15.408;2023-01-31T11:28:00;0.7;;;0.3;;
23252;SDS011;11795;47.054;15.408;2023-01-31T11:30:00;0.7;;;0.3;;
23252;SDS011;11795;47.054;15.408;2023-01-31T11:32:01;1.7;;;0.4;;
23252;SDS011;11795;47.054;15.408;2023-01-31T11:34:00;1.7;;;0.4;;
23252;SDS011;11795;47.054;15.408;2023-01-31T11:36:00;1.5;;;0.6;;
23252;SDS011;11795;47.054;15.408;2023-01-31T11:38:01;1.5;;;0.6;;
23252;SDS011;11795;47.054;15.408;2023-01-31T11:40:02;1.5;;;0.6;;
23252;SDS011;11795;47.054;15.408;2023-01-31T11:42:04;1.6;;;0.4;;
23252;SDS011;11795;47.054;15.408;2023-01-31T11:44:10;1.6;;;0.4;;
23252;SDS011;11795;47.054;15.408;2023-01-31T11:46:00;2.2;;;0.7;;
23252;SDS011;11795;47.054;15.408;2023-01-31T11:48:04;2.2;;;0.7;;
23252;SDS011;11795;47.054;15.408;2023-01-31T11:50:00;2.2;;;0.7;;
23252;SDS011;11795;47.054;15.408;2023-01-31T11:52:01;2.5;;;0.4;;
23252;SDS011;11795;47.054;15.408;2023-01-31T11:54:00;2.5;;;0.4;;
23252;SDS011;11795;47.054;15.408;2023-01-31T11:56:08;1.5;;;0.4;;
23252;SDS011;11795;47.054;15.408;2023-01-31T11:58:00;1.5;;;0.4;;
23252;SDS011;11795;47.054;15.408;2023-01-31T12:00:01;1.5;;;0.4;;
23252;SDS011;11795;47.054;15.408;2023-01-31T12:02:00;1.4;;;0.4;;
23252;SDS011;11795;47.054;15.408;2023-01-31T12:04:00;1.4;;;0.4;;
23252;SDS011;11795;47.054;15.408;2023-01-31T12:06:01;1.1;;;0.4;;
23252;SDS011;11795;47.054;15.408;2023-01-31T12:08:00;1.1;;;0.4;;
23252;SDS011;11795;47.054;15.408;2023-01-31T12:10:00;1.1;;;0.4;;
23252;SDS011;11795;47.054;15.408;2023-01-31T12:12:01;1.3;;;0.4;;
23252;SDS011;11795;47.054;15.408;2023-01-31T12:14:01;1.3;;;0.4;;
23252;SDS011;11795;47.054;15.408;2023-01-31T12:16:00;2.5;;;0.5;;
23252;SDS011;11795;47.054;15.408;2023-01-31T12:18:01;2.5;;;0.5;;
23252;SDS011;11795;47.054;15.408;2023-01-31T12:20:04;2.5;;;0.5;;
23252;SDS011;11795;47.054;15.408;2023-01-31T12:22:01;1.4;;;0.5;;
23252;SDS011;11795;47.054;15.408;2023-01-31T12:24:02;1.4;;;0.5;;